createdAt,value
2022-12-29T00:01:30.981Z,97855.59
2022-12-29T00:03:57.431Z,97864.94
2022-12-29T00:06:24.115Z,97852.16
2022-12-29T00:08:50.832Z,97843.50
2022-12-29T00:11:20.603Z,97844.28
2022-12-29T00:14:05.921Z,97853.75
2022-12-29T00:16:33.946Z,97851.97
2022-12-29T00:19:00.974Z,97841.66
2022-12-29T00:21:46.743Z,97839.03
2022-12-29T00:24:27.080Z,97851.88
2022-12-29T00:27:13.353Z,97844.13
2022-12-29T00:29:59.058Z,97842.44
2022-12-29T00:32:43.815Z,97844.03
2022-12-29T00:35:11.582Z,97841.34
2022-12-29T00:38:03.063Z,97837.13
2022-12-29T00:40:47.989Z,97831.94
2022-12-29T00:43:32.857Z,97828.41
2022-12-29T00:45:59.295Z,97825.84
2022-12-29T00:48:44.206Z,97828.34
2022-12-29T00:51:10.631Z,97832.63
2022-12-29T00:53:36.992Z,97833.50
2022-12-29T00:56:03.500Z,97832.59
2022-12-29T00:58:31.470Z,97831.78
2022-12-29T01:01:08.645Z,97829.00
2022-12-29T01:03:36.705Z,97840.94
2022-12-29T01:06:06.088Z,97833.25
2022-12-29T01:08:32.844Z,97829.00
2022-12-29T01:11:10.859Z,97823.97
2022-12-29T01:13:39.155Z,97827.34
2022-12-29T01:16:07.588Z,97822.19
2022-12-29T01:18:34.258Z,97825.56
2022-12-29T01:21:03.152Z,97823.81
2022-12-29T01:23:31.878Z,97818.81
2022-12-29T01:25:58.677Z,97824.84
2022-12-29T01:28:26.410Z,97823.03
2022-12-29T01:30:52.973Z,97812.81
2022-12-29T01:33:19.325Z,97811.91
2022-12-29T01:35:45.775Z,97805.91
2022-12-29T01:38:12.194Z,97807.56
2022-12-29T01:40:45.073Z,97805.81
2022-12-29T01:43:15.076Z,97803.22
2022-12-29T01:45:49.965Z,97798.06
2022-12-29T01:48:19.001Z,97796.22
2022-12-29T01:50:53.422Z,97785.88
2022-12-29T01:53:29.273Z,97789.34
2022-12-29T01:56:03.141Z,97788.44
2022-12-29T01:58:33.602Z,97790.88
2022-12-29T02:01:00.850Z,97791.56
2022-12-29T02:03:29.801Z,97783.78
2022-12-29T02:06:03.321Z,97788.00
2022-12-29T02:08:30.698Z,97787.94
2022-12-29T02:10:59.061Z,97781.03
2022-12-29T02:13:26.559Z,97787.03
2022-12-29T02:16:02.102Z,97783.47
2022-12-29T02:19:03.643Z,97779.03
2022-12-29T02:21:54.827Z,97778.13
2022-12-29T02:24:53.962Z,97775.44
2022-12-29T02:27:39.135Z,97769.47
2022-12-29T02:30:18.988Z,97754.00
2022-12-29T02:33:30.494Z,97767.56
2022-12-29T02:36:26.532Z,97763.34
2022-12-29T02:39:06.626Z,97763.34
2022-12-29T02:41:43.142Z,97769.47
2022-12-29T02:44:28.610Z,97770.25
2022-12-29T02:47:05.557Z,97765.22
2022-12-29T02:49:39.271Z,97773.75
2022-12-29T02:52:16.586Z,97764.16
2022-12-29T02:54:43.350Z,97765.91
2022-12-29T02:57:30.191Z,97782.44
2022-12-29T03:00:04.621Z,97777.22
2022-12-29T03:02:40.256Z,97774.72
2022-12-29T03:05:46.829Z,97768.03
2022-12-29T03:08:40.154Z,97760.13
2022-12-29T03:11:32.672Z,97759.34
2022-12-29T03:14:28.015Z,97753.13
2022-12-29T03:17:03.290Z,97752.31
2022-12-29T03:19:36.003Z,97749.00
2022-12-29T03:22:24.959Z,97751.47
2022-12-29T03:24:58.826Z,97740.34
2022-12-29T03:27:31.656Z,97743.81
2022-12-29T03:30:02.387Z,97741.38
2022-12-29T03:32:40.362Z,97733.38
2022-12-29T03:35:09.137Z,97738.59
2022-12-29T03:37:45.761Z,97737.59
2022-12-29T03:40:12.770Z,97735.16
2022-12-29T03:42:40.435Z,97738.50
2022-12-29T03:45:08.104Z,97729.00
2022-12-29T03:47:34.729Z,97735.03
2022-12-29T03:50:01.217Z,97736.78
2022-12-29T03:52:27.617Z,97734.03
2022-12-29T03:54:53.991Z,97732.38
2022-12-29T03:57:20.382Z,97737.50
2022-12-29T03:59:46.950Z,97740.13
2022-12-29T04:02:13.567Z,97741.63
2022-12-29T04:04:41.035Z,97731.38
2022-12-29T04:07:07.489Z,97742.56
2022-12-29T04:09:33.972Z,97733.16
2022-12-29T04:12:01.009Z,97737.34
2022-12-29T04:14:30.544Z,97732.19
2022-12-29T04:16:56.985Z,97740.69
2022-12-29T04:19:23.421Z,97741.63
2022-12-29T04:21:52.627Z,97748.50
2022-12-29T04:24:19.067Z,97743.50
2022-12-29T04:26:45.713Z,97744.25
2022-12-29T04:29:12.138Z,97742.38
2022-12-29T04:31:41.196Z,97741.47
2022-12-29T04:34:07.828Z,97741.47
2022-12-29T04:36:34.311Z,97739.81
2022-12-29T04:39:01.120Z,97738.13
2022-12-29T04:41:27.550Z,97742.41
2022-12-29T04:43:53.966Z,97745.78
2022-12-29T04:46:20.374Z,97739.16
2022-12-29T04:48:47.092Z,97741.69
2022-12-29T04:51:13.934Z,97734.91
2022-12-29T04:53:40.790Z,97736.56
2022-12-29T04:56:07.541Z,97723.81
2022-12-29T04:58:34.440Z,97740.06
2022-12-29T05:01:00.827Z,97732.66
2022-12-29T05:03:27.286Z,97733.50
2022-12-29T05:05:55.648Z,97737.81
2022-12-29T05:08:27.763Z,97744.78
2022-12-29T05:10:54.863Z,97735.91
2022-12-29T05:13:21.288Z,97734.16
2022-12-29T05:15:54.986Z,97736.91
2022-12-29T05:18:21.742Z,97738.28
2022-12-29T05:20:48.540Z,97733.25
2022-12-29T05:23:15.315Z,97735.81
2022-12-29T05:25:42.058Z,97731.59
2022-12-29T05:28:11.445Z,97737.69
2022-12-29T05:30:37.812Z,97724.16
2022-12-29T05:33:04.272Z,97702.84
2022-12-29T05:35:30.693Z,97708.69
2022-12-29T05:37:57.119Z,97709.66
2022-12-29T05:40:23.605Z,97711.38
2022-12-29T05:42:52.836Z,97722.50
2022-12-29T05:45:19.250Z,97721.84
2022-12-29T05:47:45.652Z,97722.69
2022-12-29T05:50:12.082Z,97724.59
2022-12-29T05:52:38.516Z,97722.25
2022-12-29T05:55:05.301Z,97714.56
2022-12-29T05:57:31.704Z,97727.50
2022-12-29T05:59:58.091Z,97721.72
2022-12-29T06:02:24.618Z,97720.84
2022-12-29T06:04:51.183Z,97724.31
2022-12-29T06:07:17.592Z,97717.44
2022-12-29T06:09:44.018Z,97715.78
2022-12-29T06:12:10.465Z,97720.13
2022-12-29T06:14:38.401Z,97724.34
2022-12-29T06:17:04.975Z,97723.59
2022-12-29T06:19:31.378Z,97716.13
2022-12-29T06:21:57.825Z,97715.28
2022-12-29T06:24:24.196Z,97709.41
2022-12-29T06:26:50.628Z,97711.88
2022-12-29T06:29:18.098Z,97714.44
2022-12-29T06:31:47.793Z,97728.16
2022-12-29T06:34:14.287Z,97734.19
2022-12-29T06:36:40.696Z,97726.56
2022-12-29T06:39:07.267Z,97728.38
2022-12-29T06:41:33.693Z,97731.84
2022-12-29T06:44:00.164Z,97737.03
2022-12-29T06:46:26.587Z,97730.19
2022-12-29T06:48:55.249Z,97733.59
2022-12-29T06:51:21.654Z,97740.59
2022-12-29T06:53:48.057Z,97746.53
2022-12-29T06:56:14.452Z,97739.66
2022-12-29T06:58:40.824Z,97730.19
2022-12-29T07:01:07.325Z,97727.88
2022-12-29T07:03:33.929Z,97725.28
2022-12-29T07:06:00.460Z,97726.97
2022-12-29T07:08:26.914Z,97738.94
2022-12-29T07:10:53.336Z,97728.66
2022-12-29T07:13:19.732Z,97732.06
2022-12-29T07:15:46.115Z,97737.19
2022-12-29T07:18:12.535Z,97750.63
2022-12-29T07:20:38.926Z,97754.88
2022-12-29T07:23:05.339Z,97750.59
2022-12-29T07:25:31.787Z,97753.09
2022-12-29T07:27:58.160Z,97764.91
2022-12-29T07:30:24.565Z,97758.84
2022-12-29T07:32:50.949Z,97759.53
2022-12-29T07:35:19.706Z,97758.78
2022-12-29T07:37:46.102Z,97755.25
2022-12-29T07:40:13.717Z,97755.88
2022-12-29T07:42:40.657Z,97754.97
2022-12-29T07:45:07.688Z,97755.75
2022-12-29T07:47:34.151Z,97756.66
2022-12-29T07:50:00.568Z,97763.44
2022-12-29T07:52:26.987Z,97768.41
2022-12-29T07:54:53.412Z,97755.53
2022-12-29T07:57:19.814Z,97758.94
2022-12-29T07:59:46.176Z,97751.09
2022-12-29T08:02:12.861Z,97749.41
2022-12-29T08:04:39.502Z,97753.63
2022-12-29T08:07:06.012Z,97754.38
2022-12-29T08:09:32.409Z,97761.13
2022-12-29T08:11:58.805Z,97742.13
2022-12-29T08:14:25.176Z,97753.22
2022-12-29T08:16:51.625Z,97759.16
2022-12-29T08:19:18.032Z,97772.88
2022-12-29T08:21:44.482Z,97778.69
2022-12-29T08:24:10.881Z,97775.88
2022-12-29T08:26:37.416Z,97772.34
2022-12-29T08:29:03.818Z,97770.53
2022-12-29T08:31:33.182Z,97769.56
2022-12-29T08:34:00.986Z,97763.50
2022-12-29T08:36:27.408Z,97777.03
2022-12-29T08:38:54.019Z,97762.31
2022-12-29T08:41:20.409Z,97749.25
2022-12-29T08:43:48.400Z,97743.16
2022-12-29T08:46:15.290Z,97772.19
2022-12-29T08:48:41.811Z,97769.53
2022-12-29T08:51:08.767Z,97771.03
2022-12-29T08:53:35.312Z,97764.78
2022-12-29T08:56:05.425Z,97765.41
2022-12-29T08:58:32.951Z,97761.56
2022-12-29T09:00:59.836Z,97768.06
2022-12-29T09:03:55.081Z,97763.72
2022-12-29T09:06:14.668Z,97764.56
2022-12-29T09:08:42.675Z,97767.00
2022-12-29T09:11:12.067Z,97762.47
2022-12-29T09:13:39.592Z,97768.34
2022-12-29T09:16:06.396Z,97760.38
2022-12-29T09:18:35.507Z,97769.53
2022-12-29T09:21:05.130Z,97765.19
2022-12-29T09:23:32.389Z,97780.72
2022-12-29T09:25:58.889Z,97774.38
2022-12-29T09:28:25.510Z,97775.38
2022-12-29T09:30:52.334Z,97777.53
2022-12-29T09:33:19.445Z,97771.34
2022-12-29T09:35:51.176Z,97768.78
2022-12-29T09:38:18.000Z,97772.13
2022-12-29T09:40:50.052Z,97775.34
2022-12-29T09:43:56.276Z,97769.31
2022-12-29T09:46:30.612Z,97763.31
2022-12-29T09:49:18.631Z,97762.47
2022-12-29T09:51:50.453Z,97752.97
2022-12-29T09:54:16.793Z,97758.59
2022-12-29T09:56:44.401Z,97759.97
2022-12-29T09:59:19.064Z,97749.84
2022-12-29T10:01:57.733Z,97761.00
2022-12-29T10:04:27.693Z,97757.56
2022-12-29T10:07:30.137Z,97754.94
2022-12-29T10:10:21.541Z,97743.00
2022-12-29T10:13:09.908Z,97753.94
2022-12-29T10:15:58.454Z,97746.94
2022-12-29T10:18:47.843Z,97741.72
2022-12-29T10:21:34.427Z,97751.25
2022-12-29T10:24:05.605Z,97739.78
2022-12-29T10:26:40.962Z,97743.88
2022-12-29T10:29:27.618Z,97749.69
2022-12-29T10:32:22.294Z,97745.34
2022-12-29T10:34:57.392Z,97736.53
2022-12-29T10:37:46.105Z,97736.16
2022-12-29T10:41:01.411Z,97724.97
2022-12-29T10:43:37.010Z,97724.44
2022-12-29T10:46:07.886Z,97720.53
2022-12-29T10:48:36.145Z,97728.75
2022-12-29T10:51:09.505Z,97725.69
2022-12-29T10:53:38.804Z,97721.63
2022-12-29T10:56:21.243Z,97716.75
2022-12-29T10:58:50.952Z,97719.63
2022-12-29T11:01:19.236Z,97725.53
2022-12-29T11:04:22.506Z,97720.91
2022-12-29T11:06:50.037Z,97715.13
2022-12-29T11:09:36.637Z,97714.19
2022-12-29T11:12:29.381Z,97707.63
2022-12-29T11:15:08.517Z,97715.94
2022-12-29T11:17:58.907Z,97714.19
2022-12-29T11:20:31.246Z,97702.84
2022-12-29T11:22:58.544Z,97703.81
2022-12-29T11:25:24.948Z,97714.25
2022-12-29T11:28:01.774Z,97721.38
2022-12-29T11:30:30.955Z,97711.81
2022-12-29T11:32:59.013Z,97709.28
2022-12-29T11:35:45.746Z,97716.84
2022-12-29T11:38:23.046Z,97716.22
2022-12-29T11:40:50.431Z,97721.38
2022-12-29T11:43:38.912Z,97725.53
2022-12-29T11:46:06.364Z,97737.66
2022-12-29T11:48:43.125Z,97730.81
2022-12-29T11:51:11.630Z,97732.03
2022-12-29T11:53:48.573Z,97738.31
2022-12-29T11:56:17.774Z,97736.00
2022-12-29T11:58:45.035Z,97742.25
2022-12-29T12:01:24.305Z,97745.81
2022-12-29T12:04:02.757Z,97739.38
2022-12-29T12:06:30.694Z,97732.19
2022-12-29T12:09:03.596Z,97734.00
2022-12-29T12:11:42.965Z,97735.84
2022-12-29T12:14:26.244Z,97726.56
2022-12-29T12:17:00.662Z,97720.66
2022-12-29T12:19:44.377Z,97719.91
2022-12-29T12:22:29.027Z,97724.06
2022-12-29T12:25:02.628Z,97724.94
2022-12-29T12:27:42.328Z,97723.00
2022-12-29T12:30:20.244Z,97728.34
2022-12-29T12:33:09.748Z,97720.25
2022-12-29T12:36:19.207Z,97723.56
2022-12-29T12:38:48.534Z,97715.81
2022-12-29T12:41:30.959Z,97722.78
2022-12-29T12:44:08.590Z,97723.56
2022-12-29T12:46:56.849Z,97727.88
2022-12-29T12:50:01.480Z,97734.44
2022-12-29T12:52:42.503Z,97719.47
2022-12-29T12:55:47.772Z,97725.50
2022-12-29T12:58:30.391Z,97716.94
2022-12-29T13:01:06.534Z,97723.13
2022-12-29T13:03:45.721Z,97722.72
2022-12-29T13:06:18.262Z,97723.31
2022-12-29T13:08:59.380Z,97731.72
2022-12-29T13:11:29.950Z,97729.00
2022-12-29T13:14:08.920Z,97733.56
2022-12-29T13:16:50.968Z,97721.41
2022-12-29T13:19:29.228Z,97726.50
2022-12-29T13:22:05.993Z,97738.53
2022-12-29T13:24:48.164Z,97731.53
2022-12-29T13:27:29.641Z,97732.34
2022-12-29T13:30:11.412Z,97729.25
2022-12-29T13:33:08.069Z,97739.59
2022-12-29T13:35:55.100Z,97732.06
2022-12-29T13:38:26.980Z,97736.31
2022-12-29T13:41:00.521Z,97720.09
2022-12-29T13:43:30.846Z,97718.69
2022-12-29T13:46:13.507Z,97727.28
2022-12-29T13:48:52.349Z,97732.91
2022-12-29T13:51:27.501Z,97732.19
2022-12-29T13:54:29.082Z,97741.03
2022-12-29T13:57:27.895Z,97744.53
2022-12-29T14:00:05.061Z,97748.06
2022-12-29T14:02:39.060Z,97748.00
2022-12-29T14:05:20.799Z,97751.53
2022-12-29T14:07:48.369Z,97751.91
2022-12-29T14:10:29.904Z,97752.91
2022-12-29T14:13:20.634Z,97749.72
2022-12-29T14:15:53.811Z,97749.06
2022-12-29T14:18:23.013Z,97754.22
2022-12-29T14:21:07.822Z,97744.91
2022-12-29T14:23:38.956Z,97741.59
2022-12-29T14:26:05.286Z,97754.72
2022-12-29T14:28:37.004Z,97755.94
2022-12-29T14:31:06.561Z,97768.00
2022-12-29T14:33:34.742Z,97758.88
2022-12-29T14:36:34.114Z,97763.19
2022-12-29T14:39:00.843Z,97751.22
2022-12-29T14:41:33.340Z,97750.31
2022-12-29T14:44:19.535Z,97750.50
2022-12-29T14:46:55.451Z,97748.22
2022-12-29T14:49:28.685Z,97750.84
2022-12-29T14:52:06.297Z,97757.81
2022-12-29T14:54:32.611Z,97757.91
2022-12-29T14:57:01.979Z,97759.75
2022-12-29T14:59:30.121Z,97767.63
2022-12-29T15:01:57.341Z,97757.56
2022-12-29T15:04:32.793Z,97756.72
2022-12-29T15:07:01.452Z,97754.03
2022-12-29T15:09:34.591Z,97748.31
2022-12-29T15:12:23.617Z,97745.06
2022-12-29T15:14:55.511Z,97751.19
2022-12-29T15:17:28.885Z,97767.41
2022-12-29T15:19:56.921Z,97761.53
2022-12-29T15:22:24.312Z,97753.78
2022-12-29T15:24:53.023Z,97770.00
2022-12-29T15:27:25.556Z,97764.94
2022-12-29T15:30:02.756Z,97762.28
2022-12-29T15:32:39.445Z,97769.22
2022-12-29T15:35:24.188Z,97759.75
2022-12-29T15:37:50.684Z,97755.25
2022-12-29T15:40:32.141Z,97750.97
2022-12-29T15:43:17.015Z,97752.69
2022-12-29T15:45:44.008Z,97754.38
2022-12-29T15:48:19.231Z,97753.44
2022-12-29T15:50:46.977Z,97768.16
2022-12-29T15:53:32.968Z,97757.97
2022-12-29T15:56:11.242Z,97756.06
2022-12-29T15:58:46.671Z,97755.34
2022-12-29T16:01:28.373Z,97749.34
2022-12-29T16:03:55.893Z,97748.56
2022-12-29T16:06:32.911Z,97750.25
2022-12-29T16:09:17.606Z,97758.00
2022-12-29T16:11:55.852Z,97762.38
2022-12-29T16:14:34.331Z,97767.41
2022-12-29T16:17:05.075Z,97768.94
2022-12-29T16:19:38.521Z,97766.59
2022-12-29T16:22:12.799Z,97770.78
2022-12-29T16:24:40.995Z,97773.31
2022-12-29T16:27:23.495Z,97772.44
2022-12-29T16:29:55.101Z,97775.94
2022-12-29T16:32:27.992Z,97775.28
2022-12-29T16:35:43.847Z,97778.69
2022-12-29T16:38:22.593Z,97780.28
2022-12-29T16:41:03.000Z,97781.97
2022-12-29T16:43:43.307Z,97779.34
2022-12-29T16:46:20.550Z,97781.09
2022-12-29T16:48:51.711Z,97789.84
2022-12-29T16:51:27.150Z,97791.56
2022-12-29T16:53:55.888Z,97794.19
2022-12-29T16:56:28.103Z,97791.66
2022-12-29T16:59:26.543Z,97792.47
2022-12-29T17:01:53.044Z,97798.44
2022-12-29T17:04:19.571Z,97808.00
2022-12-29T17:06:45.969Z,97814.94
2022-12-29T17:09:24.678Z,97820.06
2022-12-29T17:12:02.900Z,97821.75
2022-12-29T17:14:43.212Z,97820.31
2022-12-29T17:17:14.958Z,97829.69
2022-12-29T17:19:45.579Z,97830.97
2022-12-29T17:22:26.985Z,97835.41
2022-12-29T17:24:54.445Z,97833.03
2022-12-29T17:27:25.527Z,97837.47
2022-12-29T17:29:55.192Z,97863.03
2022-12-29T17:32:21.809Z,97857.94
2022-12-29T17:34:49.196Z,97866.72
2022-12-29T17:37:28.871Z,97873.28
2022-12-29T17:39:55.262Z,97861.72
2022-12-29T17:42:21.648Z,97882.44
2022-12-29T17:44:48.152Z,97899.44
2022-12-29T17:47:15.871Z,97898.13
2022-12-29T17:49:46.182Z,97876.16
2022-12-29T17:52:14.027Z,97858.53
2022-12-29T17:54:50.672Z,97832.88
2022-12-29T17:57:18.749Z,97817.81
2022-12-29T17:59:45.364Z,97811.22
2022-12-29T18:02:30.589Z,97813.91
2022-12-29T18:04:58.945Z,97818.38
2022-12-29T18:07:35.459Z,97806.50
2022-12-29T18:10:03.018Z,97830.59
2022-12-29T18:12:35.173Z,97829.81
2022-12-29T18:15:01.697Z,97850.28
2022-12-29T18:17:28.127Z,97857.19
2022-12-29T18:19:55.514Z,97860.41
2022-12-29T18:22:23.902Z,97868.03
2022-12-29T18:24:50.988Z,97886.75
2022-12-29T18:27:19.400Z,97889.31
2022-12-29T18:29:46.900Z,97879.13
2022-12-29T18:32:14.404Z,97873.25
2022-12-29T18:34:41.853Z,97880.97
2022-12-29T18:37:09.628Z,97887.03
2022-12-29T18:39:37.186Z,97892.22
2022-12-29T18:42:04.839Z,97888.88
2022-12-29T18:44:31.233Z,97882.13
2022-12-29T18:46:57.708Z,97877.91
2022-12-29T18:49:24.327Z,97877.00
2022-12-29T18:51:50.732Z,97876.19
2022-12-29T18:54:27.230Z,97870.97
2022-12-29T18:56:53.650Z,97879.50
2022-12-29T18:59:20.661Z,97886.38
2022-12-29T19:01:47.204Z,97884.69
2022-12-29T19:04:14.598Z,97882.34
2022-12-29T19:06:41.515Z,97888.25
2022-12-29T19:09:08.252Z,97887.34
2022-12-29T19:11:34.804Z,97883.91
2022-12-29T19:14:01.218Z,97889.91
2022-12-29T19:16:27.640Z,97889.22
2022-12-29T19:19:08.373Z,97890.06
2022-12-29T19:21:36.394Z,97890.94
2022-12-29T19:24:02.814Z,97893.50
2022-12-29T19:26:36.290Z,97893.50
2022-12-29T19:29:03.524Z,97886.69
2022-12-29T19:31:29.960Z,97890.94
2022-12-29T19:33:56.388Z,97888.34
2022-12-29T19:36:22.891Z,97888.34
2022-12-29T19:38:49.441Z,97899.47
2022-12-29T19:41:16.273Z,97892.59
2022-12-29T19:43:42.961Z,97882.34
2022-12-29T19:46:14.226Z,97889.22
2022-12-29T19:48:41.095Z,97884.94
2022-12-29T19:51:10.919Z,97895.13
2022-12-29T19:53:37.508Z,97889.91
2022-12-29T19:56:06.185Z,97884.84
2022-12-29T19:58:34.192Z,97900.31
2022-12-29T20:01:12.808Z,97913.13
2022-12-29T20:03:40.345Z,97904.59
2022-12-29T20:06:08.459Z,97911.44
2022-12-29T20:08:38.574Z,97918.44
2022-12-29T20:11:16.971Z,97905.47
2022-12-29T20:13:44.345Z,97892.69
2022-12-29T20:16:16.542Z,97883.34
2022-12-29T20:18:43.116Z,97867.88
2022-12-29T20:21:16.609Z,97869.63
2022-12-29T20:23:44.779Z,97864.50
2022-12-29T20:26:37.522Z,97871.41
2022-12-29T20:29:03.985Z,97861.97
2022-12-29T20:31:34.083Z,97869.78
2022-12-29T20:34:00.978Z,97879.94
2022-12-29T20:36:30.165Z,97880.72
2022-12-29T20:38:59.176Z,97886.81
2022-12-29T20:41:25.663Z,97879.91
2022-12-29T20:43:53.269Z,97880.88
2022-12-29T20:46:21.760Z,97882.66
2022-12-29T20:48:50.186Z,97882.69
2022-12-29T20:51:17.014Z,97881.88
2022-12-29T20:53:43.797Z,97889.53
2022-12-29T20:56:16.207Z,97881.09
2022-12-29T20:59:08.449Z,97880.13
2022-12-29T21:01:29.743Z,97885.34
2022-12-29T21:03:56.287Z,97889.63
2022-12-29T21:06:22.681Z,97890.53
2022-12-29T21:08:50.214Z,97894.09
2022-12-29T21:11:17.798Z,97899.22
2022-12-29T21:13:44.996Z,97909.63
2022-12-29T21:16:13.348Z,97914.81
2022-12-29T21:18:40.118Z,97914.09
2022-12-29T21:21:09.676Z,97913.19
2022-12-29T21:23:39.423Z,97908.84
2022-12-29T21:26:09.890Z,97914.88
2022-12-29T21:28:41.482Z,97908.00
2022-12-29T21:31:17.337Z,97921.78
2022-12-29T21:33:43.865Z,97927.88
2022-12-29T21:36:10.343Z,97927.00
2022-12-29T21:38:36.791Z,97908.22
2022-12-29T21:41:11.800Z,97921.94
2022-12-29T21:43:38.881Z,97908.28
2022-12-29T21:46:06.472Z,97916.81
2022-12-29T21:48:33.538Z,97924.53
2022-12-29T21:51:30.832Z,97940.00
2022-12-29T21:54:18.452Z,97950.28
2022-12-29T21:56:45.785Z,97953.69
2022-12-29T21:59:32.069Z,97944.28
2022-12-29T22:02:17.726Z,97946.06
2022-12-29T22:05:03.332Z,97952.06
2022-12-29T22:07:49.567Z,97959.84
2022-12-29T22:10:34.975Z,97959.94
2022-12-29T22:13:03.060Z,97956.50
2022-12-29T22:15:32.904Z,97959.88
2022-12-29T22:18:00.937Z,97962.44
2022-12-29T22:20:29.955Z,97963.31
2022-12-29T22:22:56.606Z,97957.44
2022-12-29T22:25:23.053Z,97973.59
2022-12-29T22:27:52.972Z,97960.03
2022-12-29T22:30:22.211Z,97966.78
2022-12-29T22:32:48.645Z,97971.19
2022-12-29T22:35:15.063Z,97979.78
2022-12-29T22:37:43.534Z,97978.97
2022-12-29T22:40:11.063Z,97974.69
2022-12-29T22:42:38.265Z,97978.97
2022-12-29T22:45:05.699Z,97970.34
2022-12-29T22:47:32.214Z,97976.41
2022-12-29T22:49:58.613Z,97966.16
2022-12-29T22:52:25.087Z,97973.97
2022-12-29T22:54:51.480Z,97977.34
2022-12-29T22:57:17.898Z,97965.34
2022-12-29T22:59:44.345Z,97960.13
2022-12-29T23:02:10.869Z,97998.69
2022-12-29T23:07:23.726Z,97992.69
2022-12-29T23:09:50.104Z,97984.25
2022-12-29T23:12:16.550Z,97995.38
2022-12-29T23:14:42.896Z,97988.50
2022-12-29T23:17:09.339Z,97990.13
2022-12-29T23:19:35.741Z,97985.97
2022-12-29T23:22:02.124Z,97994.50
2022-12-29T23:24:28.525Z,97991.94
2022-12-29T23:26:54.962Z,98013.41
2022-12-29T23:29:21.410Z,98017.69
2022-12-29T23:31:48.260Z,98009.84
2022-12-29T23:34:16.492Z,98001.28
2022-12-29T23:36:43.640Z,98006.53
2022-12-29T23:39:15.606Z,98017.63
2022-12-29T23:41:41.997Z,98010.00
2022-12-29T23:44:08.508Z,98013.38
2022-12-29T23:46:35.605Z,98020.31
2022-12-29T23:49:02.120Z,98017.66
2022-12-29T23:51:28.581Z,98018.44
2022-12-29T23:53:55.033Z,98031.41
2022-12-29T23:56:23.073Z,98034.00
2022-12-29T23:58:50.694Z,98037.44
